Nearby METAR Reports

 

KSJC - San Jose, California, USA
Distance from station: NE 9mi, 14km
Updated: Fri, 18-Oct-2019 11:53pm PDT
Clear
Clear
 Wind from S
Wind: S 3 mph , 6 km/h
Temperature: 54°F , 12°C
Dew Point: 46°F , 8°C
Humidity: 77%
Barometer: 30.09 inHg , 1019 hPa
Clouds: Clear
Visibility: 10 miles , 16 km
2019/10/19 06:53 KSJC 190653Z 17003KT 10SM CLR 12/08 A3009 RMK AO2 SLP189 LAST T01220083
KNUQ - Moffett Nas/Mtn, California, USA
Distance from station: N 9mi, 14km
Updated: Fri, 18-Oct-2019 11:56pm PDT

 
Barometer: 30.10 inHg , 1019.3 hPa
2019/10/19 06:56 KNUQ 190656Z A3010 RMK AO2 SLP197 PWINO $
 
KPAO - Palo Alto, California, USA
Distance from station: NNW 14mi, 23km
Updated: Fri, 18-Oct-2019 8:47pm PDT
NOT Current
Clear
Clear
 Wind from WSW
Wind: WSW 5 mph , 7 km/h
Temperature: 55°F , 13°C
Dew Point: 46°F , 8°C
Humidity: 72%
Barometer: 30.08 inHg , 1018.6 hPa
Clouds: Clear
Visibility: 10 miles , 16 km
2019/10/19 03:47 KPAO 190347Z 24004KT 10SM SKC 13/08 A3008 RMK LAST
KRHV - San Jose/Reid, California, USA
Distance from station: ENE 12mi, 19km
Updated: Fri, 18-Oct-2019 8:47pm PDT
NOT Current
Clear
Clear
 Wind from N
Wind: N 3 mph , 6 km/h
Temperature: 54°F , 12°C
Dew Point: 45°F , 7°C
Humidity: 72%
Barometer: 30.09 inHg , 1019 hPa
Clouds: Clear
Visibility: 10 miles , 16 km
2019/10/19 03:47 KRHV 190347Z 36003KT 10SM SKC 12/07 A3009
 
KOAK - Oakland, California, USA
Distance from station: NNW 31mi, 50km
Updated: Fri, 18-Oct-2019 11:53pm PDT
Clear
Clear
 Wind from calm
Wind: Calm
Temperature: 52°F , 11°C
Dew Point: 46°F , 8°C
Humidity: 82%
Barometer: 30.09 inHg , 1019 hPa
Clouds: Clear
Visibility: 10 miles , 16 km
2019/10/19 06:53 KOAK 190653Z 00000KT 10SM CLR 11/08 A3009 RMK AO2 SLP187 T01060083
KSQL - San Carlos Airpo, California, USA
Distance from station: NW 21mi, 34km
Updated: Fri, 18-Oct-2019 8:47pm PDT
NOT Current
Clear
Clear
 Wind from SW
Wind: SW 7 mph , 11 km/h
Temperature: 57°F , 14°C
Dew Point: 46°F , 8°C
Humidity: 67%
Barometer: 30.09 inHg , 1019 hPa
Clouds: Clear
Visibility: 10 miles , 16 km
2019/10/19 03:47 KSQL 190347Z 23006KT 10SM SKC 14/08 A3009 RMK LAST
 
KSFO - San Francisco, California, USA
Distance from station: NW 30mi, 49km
Updated: Fri, 18-Oct-2019 11:56pm PDT
Few Clouds
Few Clouds
 Wind from W
Wind: W 14 mph , 22 km/h
Temperature: 57°F , 14°C
Dew Point: 48°F , 9°C
Humidity: 72%
Barometer: 30.07 inHg , 1018.3 hPa
Clouds: Few Clouds
Visibility: 10 miles , 16 km
Cloud details: Few Clouds 1000 ft
2019/10/19 06:56 KSFO 190656Z 26012KT 10SM FEW010 14/09 A3007 RMK AO2 SLP182 T01440089
KE16 - San Martin, California, USA
Distance from station: ESE 27mi, 43km
Updated: Fri, 18-Oct-2019 11:55pm PDT
Mostly cloudy
Mostly cloudy
 Wind from W
Wind: W 5 mph , 7 km/h
Temperature: 54°F , 12°C
Dew Point: 43°F , 6°C
Humidity: 67%
Barometer: 30.11 inHg , 1019.6 hPa
Clouds: Mostly cloudy
Visibility: 10 miles , 16 km
Cloud details: Mostly cloudy 1800 ft
2019/10/19 06:55 KE16 190655Z AUTO 28004KT 10SM BKN018 12/06 A3011 RMK AO2
 
KWVI - Watsonville, California, USA
Distance from station: SSE 27mi, 44km
Updated: Fri, 18-Oct-2019 11:53pm PDT
Clear
Clear
 Wind from calm
Wind: Calm
Temperature: 52°F , 11°C
Dew Point: 46°F , 8°C
Humidity: 82%
Barometer: 30.10 inHg , 1019.3 hPa
Clouds: Clear
Visibility: 10 miles , 16 km
2019/10/19 06:53 KWVI 190653Z AUTO 00000KT 10SM CLR 11/08 A3010 RMK AO2 SLP192 T01060083
KHAF - Half Moon Bay, California, USA
Distance from station: WNW 31mi, 50km
Updated: Sat, 19-Oct-2019 12:00am PDT
Mist, Overcast
Mist, Overcast
 Wind from calm
Wind: Calm
Temperature: 46°F , 8°C
Dew Point: 46°F , 8°C
Humidity: 100%
Barometer: 30.10 inHg , 1019.3 hPa
Summary: Mist
Clouds: Overcast
Visibility: 2 miles , 3 km
Cloud details: Overcast 200 ft
2019/10/19 07:00 KHAF 190700Z AUTO 00000KT 2SM BR OVC002 08/08 A3010 RMK AO2
 
KHWD - Hayward, California, USA
Distance from station: N 28mi, 44km
Updated: Fri, 18-Oct-2019 11:54pm PDT
Clear
Clear
 Wind from S
Wind: S 3 mph , 6 km/h
Temperature: 54°F , 12°C
Dew Point: 50°F , 10°C
Humidity: 88%
Barometer: 30.08 inHg , 1018.6 hPa
Clouds: Clear
Visibility: 9 miles , 14 km
2019/10/19 06:54 KHWD 190654Z AUTO 17003KT 9SM CLR 12/10 A3008 RMK AO2 SLP196 T01220100
KLVK - Livermore, California, USA
Distance from station: NNE 31mi, 51km
Updated: Fri, 18-Oct-2019 11:53pm PDT
Clear
Clear
 Wind from SW
Wind: SW 5 mph , 7 km/h
Temperature: 54°F , 12°C
Dew Point: 48°F , 9°C
Humidity: 82%
Barometer: 30.08 inHg , 1018.6 hPa
Clouds: Clear
Visibility: 10 miles , 16 km
2019/10/19 06:53 KLVK 190653Z AUTO 23004KT 10SM CLR 12/09 A3008 RMK AO2 SLP182 T01220089